DAH786 DTTA-DAAG
Flight info
| Callsign | DAH786 |
|---|---|
| Flight time | N/A |
| Altitude | 34000 |
| Route | KEMIR2A KEMIR A411 BJA/N0455F400 DCT 37N004E DCT ZEM |
| Aircraft | B736/M-SDE2E3FGHIRWXY/LB1 |
Departure
| Time | N/A |
|---|---|
| Airport | Tunis Carthage International Airport (DTTA) |
Arrival
| Time | 2026-05-08 11:36 |
|---|---|
| Airport | Houari Boumediene Airport (DAAG) |
| Time | Latitude | Longitude | Altitude | Speed | Heading |
|---|---|---|---|---|---|
| 2026-05-08 11:29 | 36.73630 | 3.53089 | 3196 ft | 230 kts | 208° |
| 2026-05-08 11:29 | 36.72241 | 3.52128 | 3044 ft | 228 kts | 209° |
| 2026-05-08 11:29 | 36.70873 | 3.51128 | 2999 ft | 228 kts | 217° |
| 2026-05-08 11:30 | 36.69710 | 3.49835 | 3006 ft | 217 kts | 223° |
| 2026-05-08 11:30 | 36.68901 | 3.48382 | 2965 ft | 196 kts | 257° |
| 2026-05-08 11:30 | 36.68775 | 3.46751 | 2990 ft | 186 kts | 262° |
| 2026-05-08 11:30 | 36.68624 | 3.45179 | 2994 ft | 182 kts | 265° |
| 2026-05-08 11:31 | 36.68595 | 3.43597 | 3004 ft | 184 kts | 269° |
| 2026-05-08 11:31 | 36.68618 | 3.41996 | 2996 ft | 185 kts | 270° |
| 2026-05-08 11:31 | 36.68669 | 3.40393 | 3000 ft | 186 kts | 271° |
| 2026-05-08 11:31 | 36.68713 | 3.38817 | 2829 ft | 175 kts | 270° |
| 2026-05-08 11:32 | 36.68747 | 3.37358 | 2611 ft | 161 kts | 270° |
| 2026-05-08 11:32 | 36.68777 | 3.36010 | 2415 ft | 152 kts | 271° |
| 2026-05-08 11:32 | 36.68805 | 3.34705 | 2228 ft | 150 kts | 271° |
| 2026-05-08 11:32 | 36.68832 | 3.33458 | 2025 ft | 139 kts | 272° |
| 2026-05-08 11:33 | 36.68858 | 3.32286 | 1863 ft | 131 kts | 272° |
| 2026-05-08 11:33 | 36.68882 | 3.31177 | 1679 ft | 129 kts | 273° |
| 2026-05-08 11:33 | 36.68908 | 3.30039 | 1510 ft | 131 kts | 273° |
| 2026-05-08 11:33 | 36.68933 | 3.28916 | 1326 ft | 131 kts | 273° |
| 2026-05-08 11:34 | 36.68958 | 3.27790 | 1147 ft | 130 kts | 274° |
| 2026-05-08 11:34 | 36.68986 | 3.26648 | 976 ft | 130 kts | 273° |
| 2026-05-08 11:34 | 36.69009 | 3.25538 | 790 ft | 129 kts | 274° |
| 2026-05-08 11:34 | 36.69036 | 3.24412 | 636 ft | 133 kts | 274° |
| 2026-05-08 11:35 | 36.69061 | 3.23265 | 461 ft | 130 kts | 274° |
| 2026-05-08 11:35 | 36.69087 | 3.22151 | 285 ft | 126 kts | 276° |
| 2026-05-08 11:35 | 36.69112 | 3.21064 | 122 ft | 127 kts | 275° |
| 2026-05-08 11:35 | 36.69139 | 3.20005 | 77 ft | 111 kts | 270° |
| 2026-05-08 11:36 | 36.69163 | 3.19217 | 77 ft | 79 kts | 271° |
| 2026-05-08 11:36 | 36.69174 | 3.18622 | 79 ft | 44 kts | 269° |
| 2026-05-08 11:36 | 36.69206 | 3.18433 | 74 ft | 14 kts | 333° |
| 2026-05-08 11:36 | 36.69300 | 3.18425 | 72 ft | 15 kts | 2° |
| 2026-05-08 11:37 | 36.69341 | 3.18526 | 71 ft | 14 kts | 92° |
| 2026-05-08 11:37 | 36.69339 | 3.18648 | 71 ft | 14 kts | 92° |
| 2026-05-08 11:37 | 36.69337 | 3.18769 | 71 ft | 15 kts | 90° |
| 2026-05-08 11:37 | 36.69334 | 3.18888 | 68 ft | 14 kts | 91° |
| 2026-05-08 11:38 | 36.69332 | 3.19021 | 66 ft | 16 kts | 90° |
| 2026-05-08 11:38 | 36.69332 | 3.19171 | 68 ft | 18 kts | 90° |
| 2026-05-08 11:38 | 36.69333 | 3.19335 | 67 ft | 20 kts | 91° |
| 2026-05-08 11:38 | 36.69322 | 3.19482 | 66 ft | 17 kts | 93° |
| 2026-05-08 11:39 | 36.69318 | 3.19623 | 70 ft | 16 kts | 94° |
| 2026-05-08 11:39 | 36.69313 | 3.19751 | 70 ft | 12 kts | 91° |
| 2026-05-08 11:39 | 36.69313 | 3.19852 | 70 ft | 12 kts | 76° |
| 2026-05-08 11:39 | 36.69374 | 3.19889 | 69 ft | 7 kts | 5° |
| 2026-05-08 11:40 | 36.69424 | 3.19895 | 67 ft | 7 kts | 5° |
| 2026-05-08 11:40 | 36.69448 | 3.19861 | 69 ft | 6 kts | 272° |
| 2026-05-08 11:40 | 36.69450 | 3.19814 | 59 ft | 5 kts | 272° |
| 2026-05-08 11:40 | 36.69450 | 3.19805 | 64 ft | 0 kts | 272° |